createdAt,value
2022-08-26T00:00:19.928Z,17.77
2022-08-26T00:03:03.610Z,17.74
2022-08-26T00:05:32.289Z,17.72
2022-08-26T00:08:00.549Z,17.72
2022-08-26T00:10:28.974Z,17.73
2022-08-26T00:12:57.394Z,17.60
2022-08-26T00:15:26.592Z,17.56
2022-08-26T00:17:55.720Z,17.53
2022-08-26T00:20:27.739Z,17.54
2022-08-26T00:22:56.159Z,17.50
2022-08-26T00:25:25.220Z,17.44
2022-08-26T00:27:53.550Z,17.43
2022-08-26T00:30:27.401Z,17.26
2022-08-26T00:32:57.052Z,17.15
2022-08-26T00:35:27.973Z,17.02
2022-08-26T00:37:58.013Z,16.88
2022-08-26T00:40:38.846Z,16.85
2022-08-26T00:43:09.444Z,16.84
2022-08-26T00:45:56.612Z,16.85
2022-08-26T00:48:31.756Z,16.77
2022-08-26T00:51:14.839Z,16.80
2022-08-26T00:53:50.576Z,16.82
2022-08-26T00:56:27.803Z,16.75
2022-08-26T00:59:00.098Z,16.71
2022-08-26T01:01:28.681Z,16.67
2022-08-26T01:04:00.109Z,16.59
2022-08-26T01:06:29.935Z,16.55
2022-08-26T01:08:58.993Z,16.54
2022-08-26T01:11:28.115Z,16.58
2022-08-26T01:14:00.658Z,16.61
2022-08-26T01:16:33.262Z,16.66
2022-08-26T01:19:10.491Z,16.64
2022-08-26T01:21:48.535Z,16.64
2022-08-26T01:24:18.393Z,16.66
2022-08-26T01:26:48.675Z,16.67
2022-08-26T01:29:20.109Z,16.67
2022-08-26T01:31:55.581Z,16.73
2022-08-26T01:34:25.992Z,16.76
2022-08-26T01:37:17.178Z,16.77
2022-08-26T01:39:49.088Z,16.81
2022-08-26T01:42:20.108Z,16.83
2022-08-26T01:45:03.901Z,16.72
2022-08-26T01:47:35.891Z,16.58
2022-08-26T01:50:10.876Z,16.59
2022-08-26T01:52:42.712Z,16.58
2022-08-26T01:55:32.063Z,16.52
2022-08-26T01:57:59.775Z,16.49
2022-08-26T02:00:28.503Z,16.44
2022-08-26T02:03:17.223Z,16.39
2022-08-26T02:05:53.550Z,16.45
2022-08-26T02:08:45.246Z,16.44
2022-08-26T02:11:14.442Z,16.40
2022-08-26T02:13:54.458Z,16.40
2022-08-26T02:16:27.573Z,16.38
2022-08-26T02:18:57.927Z,16.37
2022-08-26T02:21:26.751Z,16.42
2022-08-26T02:23:56.106Z,16.47
2022-08-26T02:26:27.011Z,16.47
2022-08-26T02:29:23.804Z,16.49
2022-08-26T02:31:55.029Z,16.47
2022-08-26T02:34:28.261Z,16.48
2022-08-26T02:37:01.411Z,16.45
2022-08-26T02:39:30.469Z,16.50
2022-08-26T02:41:59.621Z,16.53
2022-08-26T02:44:27.998Z,16.55
2022-08-26T02:46:56.390Z,16.51
2022-08-26T02:49:26.459Z,16.51
2022-08-26T02:51:54.790Z,16.47
2022-08-26T02:54:23.358Z,16.42
2022-08-26T02:56:51.709Z,16.41
2022-08-26T02:59:20.069Z,16.36
2022-08-26T03:01:56.097Z,16.29
2022-08-26T03:04:25.768Z,16.27
2022-08-26T03:06:55.573Z,16.20
2022-08-26T03:09:24.669Z,16.22
2022-08-26T03:11:53.186Z,16.13
2022-08-26T03:14:24.062Z,16.14
2022-08-26T03:16:54.477Z,16.13
2022-08-26T03:19:25.497Z,16.11
2022-08-26T03:21:58.028Z,16.14
2022-08-26T03:24:26.980Z,16.18
2022-08-26T03:26:55.554Z,16.14
2022-08-26T03:29:42.539Z,16.16
2022-08-26T03:32:12.056Z,16.14
2022-08-26T03:34:40.759Z,16.15
2022-08-26T03:37:09.288Z,16.11
2022-08-26T03:39:38.169Z,16.08
2022-08-26T03:42:06.629Z,16.06
2022-08-26T03:44:37.348Z,16.05
2022-08-26T03:47:10.677Z,16.10
2022-08-26T03:49:38.977Z,16.11
2022-08-26T03:52:07.783Z,16.13
2022-08-26T03:54:36.122Z,16.17
2022-08-26T03:57:05.109Z,16.17
2022-08-26T03:59:33.992Z,16.22
2022-08-26T04:02:02.360Z,16.22
2022-08-26T04:04:30.859Z,16.26
2022-08-26T04:06:59.807Z,16.27
2022-08-26T04:09:28.525Z,16.28
2022-08-26T04:11:58.726Z,16.31
2022-08-26T04:14:28.243Z,16.36
2022-08-26T04:16:56.939Z,16.42
2022-08-26T04:19:26.106Z,16.49
2022-08-26T04:21:54.760Z,16.57
2022-08-26T04:24:25.226Z,16.63
2022-08-26T04:26:54.092Z,16.68
2022-08-26T04:29:25.490Z,16.78
2022-08-26T04:31:57.616Z,16.87
2022-08-26T04:34:29.007Z,17.00
2022-08-26T04:36:58.284Z,17.21
2022-08-26T04:39:27.753Z,17.41
2022-08-26T04:41:59.250Z,17.60
2022-08-26T04:44:37.758Z,17.90
2022-08-26T04:47:10.838Z,18.20
2022-08-26T04:49:39.637Z,18.41
2022-08-26T04:52:09.650Z,18.64
2022-08-26T04:54:38.135Z,18.76
2022-08-26T04:57:10.519Z,18.92
2022-08-26T04:59:39.538Z,19.16
2022-08-26T05:02:08.183Z,19.31
2022-08-26T05:04:38.034Z,19.38
2022-08-26T05:07:28.988Z,19.60
2022-08-26T05:09:57.446Z,19.75
2022-08-26T05:12:25.843Z,19.95
2022-08-26T05:14:54.309Z,20.16
2022-08-26T05:17:23.703Z,20.22
2022-08-26T05:19:52.131Z,20.32
2022-08-26T05:22:21.011Z,20.37
2022-08-26T05:24:49.550Z,20.50
2022-08-26T05:27:17.972Z,20.67
2022-08-26T05:29:46.753Z,20.83
2022-08-26T05:32:23.813Z,20.91
2022-08-26T05:34:57.198Z,21.14
2022-08-26T05:37:27.006Z,21.41
2022-08-26T05:39:55.463Z,21.58
2022-08-26T05:42:23.998Z,21.71
2022-08-26T05:44:55.999Z,21.92
2022-08-26T05:47:25.559Z,22.09
2022-08-26T05:49:54.540Z,22.18
2022-08-26T05:52:24.640Z,22.29
2022-08-26T05:54:55.805Z,22.40
2022-08-26T05:57:24.478Z,22.56
2022-08-26T05:59:53.023Z,22.63
2022-08-26T06:02:21.862Z,22.78
2022-08-26T06:04:50.300Z,22.91
2022-08-26T06:07:40.352Z,22.91
2022-08-26T06:10:32.625Z,22.94
2022-08-26T06:13:11.552Z,22.88
2022-08-26T06:15:43.346Z,22.89
2022-08-26T06:18:14.781Z,22.97
2022-08-26T06:20:54.636Z,23.10
2022-08-26T06:23:40.907Z,23.16
2022-08-26T06:26:11.415Z,23.24
2022-08-26T06:28:39.741Z,23.31
2022-08-26T06:31:12.767Z,23.38
2022-08-26T06:33:45.069Z,23.36
2022-08-26T06:36:19.540Z,23.24
2022-08-26T06:38:49.485Z,23.31
2022-08-26T06:41:21.175Z,23.38
2022-08-26T06:43:50.892Z,23.47
2022-08-26T06:46:22.113Z,23.61
2022-08-26T06:48:50.652Z,23.68
2022-08-26T06:51:23.588Z,23.65
2022-08-26T06:53:54.707Z,23.72
2022-08-26T06:56:25.990Z,23.77
2022-08-26T06:58:54.811Z,23.83
2022-08-26T07:01:33.801Z,23.93
2022-08-26T07:04:05.214Z,24.01
2022-08-26T07:06:41.437Z,24.07
2022-08-26T07:09:12.213Z,24.09
2022-08-26T07:11:42.518Z,24.14
2022-08-26T07:14:12.287Z,24.18
2022-08-26T07:16:43.510Z,24.23
2022-08-26T07:19:13.969Z,24.26
2022-08-26T07:21:42.778Z,24.29
2022-08-26T07:26:48.893Z,24.37
2022-08-26T07:29:20.165Z,24.49
2022-08-26T07:31:56.815Z,24.59
2022-08-26T07:34:29.325Z,24.64
2022-08-26T07:36:59.096Z,24.72
2022-08-26T07:39:28.278Z,24.78
2022-08-26T07:42:23.686Z,24.82
2022-08-26T07:45:15.423Z,24.82
2022-08-26T07:47:44.165Z,24.87
2022-08-26T07:50:17.071Z,24.94
2022-08-26T07:52:46.269Z,25.09
2022-08-26T07:55:20.100Z,25.22
2022-08-26T07:57:49.568Z,25.24
2022-08-26T08:00:18.159Z,25.27
2022-08-26T08:02:47.249Z,25.32
2022-08-26T08:06:18.825Z,25.33
2022-08-26T08:08:59.198Z,25.43
2022-08-26T08:11:31.308Z,25.56
2022-08-26T08:14:40.179Z,25.62
2022-08-26T08:17:09.163Z,25.80
2022-08-26T08:19:39.653Z,25.88
2022-08-26T08:35:30.782Z,26.69
2022-08-26T08:38:00.489Z,26.81
2022-08-26T08:51:39.958Z,27.48
2022-08-26T08:54:18.057Z,27.60
2022-08-26T08:56:53.506Z,27.62
2022-08-26T08:59:32.389Z,27.59
2022-08-26T09:02:12.048Z,27.62
2022-08-26T09:04:59.996Z,27.62
2022-08-26T09:07:36.947Z,27.71
2022-08-26T09:10:17.033Z,27.68
2022-08-26T09:13:19.585Z,27.68
2022-08-26T09:16:08.116Z,27.70
2022-08-26T09:18:46.152Z,27.77
2022-08-26T09:21:17.790Z,27.81
2022-08-26T09:23:51.004Z,27.82
2022-08-26T09:26:31.966Z,27.89
2022-08-26T09:29:03.753Z,27.85
2022-08-26T09:31:42.282Z,27.87
2022-08-26T09:37:25.046Z,27.97
2022-08-26T09:39:53.662Z,27.98
2022-08-26T09:42:26.789Z,27.96
2022-08-26T09:45:06.592Z,27.96
2022-08-26T09:47:54.626Z,27.98
2022-08-26T09:50:35.131Z,27.91
2022-08-26T09:53:16.095Z,28.18
2022-08-26T09:55:46.682Z,28.38
2022-08-26T09:58:28.528Z,28.50
2022-08-26T10:01:02.703Z,28.50
2022-08-26T10:06:13.013Z,28.89
2022-08-26T10:08:47.644Z,29.06
2022-08-26T10:14:48.053Z,29.37
2022-08-26T10:17:30.933Z,29.55
2022-08-26T10:20:13.636Z,29.54
2022-08-26T10:23:18.113Z,29.56
2022-08-26T10:25:53.540Z,29.70
2022-08-26T10:28:33.986Z,29.86
2022-08-26T10:31:09.983Z,29.87
2022-08-26T10:33:39.424Z,29.58
2022-08-26T10:36:39.295Z,29.65
2022-08-26T10:39:19.021Z,29.76
2022-08-26T10:41:52.255Z,29.81
2022-08-26T10:44:21.993Z,29.74
2022-08-26T10:47:03.453Z,29.91
2022-08-26T10:49:34.759Z,29.98
2022-08-26T10:52:16.597Z,29.94
2022-08-26T10:54:51.326Z,29.89
2022-08-26T10:57:23.033Z,29.77
2022-08-26T11:00:27.590Z,29.86
2022-08-26T11:03:22.547Z,29.81
2022-08-26T11:05:52.994Z,29.99
2022-08-26T11:08:22.155Z,30.11
2022-08-26T11:10:53.663Z,30.23
2022-08-26T11:13:33.963Z,30.31
2022-08-26T11:16:02.686Z,30.08
2022-08-26T11:18:39.020Z,30.17
2022-08-26T11:21:46.065Z,30.22
2022-08-26T11:24:36.110Z,30.33
2022-08-26T11:27:05.253Z,30.33
2022-08-26T11:29:41.954Z,30.36
2022-08-26T11:32:23.207Z,30.46
2022-08-26T11:34:59.285Z,30.52
2022-08-26T11:37:41.300Z,30.35
2022-08-26T11:40:38.598Z,30.40
2022-08-26T11:43:30.287Z,30.60
2022-08-26T11:46:09.238Z,30.67
2022-08-26T11:49:06.282Z,30.62
2022-08-26T11:56:12.522Z,30.39
2022-08-26T12:02:27.032Z,30.46
2022-08-26T12:04:56.522Z,30.31
2022-08-26T12:07:32.890Z,30.23
2022-08-26T12:29:29.225Z,30.50
2022-08-26T12:32:06.126Z,30.46
2022-08-26T12:34:35.833Z,30.42
2022-08-26T12:37:11.097Z,30.40
2022-08-26T12:39:41.190Z,30.47
2022-08-26T12:42:47.097Z,30.55
2022-08-26T12:46:26.148Z,30.51
2022-08-26T12:49:19.380Z,30.47
2022-08-26T12:52:30.427Z,30.39
2022-08-26T12:55:11.055Z,30.31
2022-08-26T12:58:33.145Z,30.31
2022-08-26T13:01:09.223Z,30.24
2022-08-26T13:03:43.796Z,30.29
2022-08-26T13:06:22.482Z,30.37
2022-08-26T13:09:05.115Z,30.47
2022-08-26T13:11:40.622Z,30.48
2022-08-26T13:15:20.819Z,30.58
2022-08-26T13:18:09.313Z,30.55
2022-08-26T13:20:44.953Z,30.60
2022-08-26T13:24:15.388Z,30.55
2022-08-26T13:26:49.708Z,30.44
2022-08-26T13:29:39.560Z,30.42
2022-08-26T13:32:15.769Z,30.41
2022-08-26T13:34:51.039Z,30.32
2022-08-26T13:37:48.343Z,30.36
2022-08-26T13:40:19.142Z,30.38
2022-08-26T13:42:49.906Z,30.36
2022-08-26T13:45:21.643Z,30.36
2022-08-26T13:47:54.742Z,30.23
2022-08-26T13:50:23.466Z,30.27
2022-08-26T13:53:10.910Z,30.18
2022-08-26T13:55:39.577Z,30.14
2022-08-26T13:58:13.927Z,30.13
2022-08-26T14:01:43.116Z,30.28
2022-08-26T14:04:11.527Z,30.32
2022-08-26T14:06:49.105Z,30.29
2022-08-26T14:10:07.446Z,30.25
2022-08-26T14:12:36.744Z,30.32
2022-08-26T14:15:28.693Z,30.28
2022-08-26T14:25:02.114Z,30.14
2022-08-26T14:27:31.281Z,30.09
2022-08-26T14:29:59.944Z,30.04
2022-08-26T14:32:33.327Z,30.05
2022-08-26T14:38:51.140Z,30.09
2022-08-26T14:41:27.248Z,30.04
2022-08-26T14:44:18.623Z,29.97
2022-08-26T15:00:31.614Z,30.20
2022-08-26T15:02:58.982Z,30.16
2022-08-26T15:05:33.960Z,30.07
2022-08-26T15:08:03.996Z,30.07
2022-08-26T15:10:32.028Z,29.98
2022-08-26T15:29:08.986Z,30.17
2022-08-26T15:31:36.659Z,30.03
2022-08-26T15:34:20.226Z,29.92
2022-08-26T15:37:14.543Z,29.84
2022-08-26T15:39:41.579Z,29.74
2022-08-26T15:42:37.601Z,29.56
2022-08-26T15:45:26.423Z,29.37
2022-08-26T15:48:53.038Z,29.24
2022-08-26T15:51:29.936Z,29.15
2022-08-26T15:54:12.284Z,29.10
2022-08-26T15:57:04.085Z,29.05
2022-08-26T15:59:37.221Z,28.98
2022-08-26T16:02:59.236Z,28.90
2022-08-26T16:12:53.494Z,28.63
2022-08-26T16:15:49.461Z,28.56
2022-08-26T16:18:43.876Z,28.53
2022-08-26T16:21:22.100Z,28.46
2022-08-26T16:24:58.634Z,28.41
2022-08-26T16:27:26.838Z,28.29
2022-08-26T16:29:53.868Z,28.21
2022-08-26T16:33:29.176Z,28.15
2022-08-26T16:36:19.625Z,28.04
2022-08-26T16:42:41.664Z,27.78
2022-08-26T16:45:09.423Z,27.72
2022-08-26T16:47:36.812Z,27.67
2022-08-26T16:51:00.032Z,27.58
2022-08-26T16:53:46.611Z,27.41
2022-08-26T16:56:57.343Z,27.28
2022-08-26T17:02:20.342Z,26.96
2022-08-26T17:05:24.351Z,26.76
2022-08-26T17:07:56.196Z,26.69
2022-08-26T17:10:28.107Z,26.56
2022-08-26T17:12:56.076Z,26.40
2022-08-26T17:15:23.740Z,26.19
2022-08-26T17:17:52.111Z,26.03
2022-08-26T17:20:25.944Z,25.87
2022-08-26T17:23:27.646Z,25.67
2022-08-26T17:25:54.867Z,25.47
2022-08-26T17:28:22.242Z,25.33
2022-08-26T17:30:49.332Z,25.19
2022-08-26T17:33:17.115Z,24.98
2022-08-26T17:38:17.858Z,24.47
2022-08-26T17:40:49.626Z,24.38
2022-08-26T17:43:16.897Z,24.34
2022-08-26T17:45:44.227Z,24.30
2022-08-26T17:48:12.181Z,24.19
2022-08-26T17:50:45.555Z,24.03
2022-08-26T17:53:18.728Z,23.92
2022-08-26T17:55:51.798Z,23.80
2022-08-26T17:58:22.700Z,23.67
2022-08-26T18:00:56.166Z,23.52
2022-08-26T18:03:23.942Z,23.35
2022-08-26T18:06:14.011Z,23.23
2022-08-26T18:08:43.402Z,23.12
2022-08-26T18:11:40.603Z,23.04
2022-08-26T18:14:08.337Z,22.92
2022-08-26T18:16:39.080Z,22.79
2022-08-26T18:19:06.836Z,22.64
2022-08-26T18:21:35.627Z,22.45
2022-08-26T18:24:03.133Z,22.28
2022-08-26T18:26:36.990Z,22.17
2022-08-26T18:29:06.555Z,22.09
2022-08-26T18:31:34.567Z,21.97
2022-08-26T18:34:02.474Z,21.83
2022-08-26T18:36:31.561Z,21.78
2022-08-26T18:38:58.791Z,21.66
2022-08-26T18:41:28.729Z,21.61
2022-08-26T18:43:56.248Z,21.55
2022-08-26T18:46:25.948Z,21.47
2022-08-26T18:48:55.072Z,21.41
2022-08-26T18:51:26.566Z,21.37
2022-08-26T18:53:53.593Z,21.29
2022-08-26T18:56:22.005Z,21.23
2022-08-26T18:58:50.057Z,21.18
2022-08-26T19:01:18.961Z,21.12
2022-08-26T19:03:46.666Z,21.05
2022-08-26T19:06:16.389Z,20.99
2022-08-26T19:08:44.738Z,20.93
2022-08-26T19:11:13.844Z,20.83
2022-08-26T19:13:42.127Z,20.79
2022-08-26T19:16:23.234Z,20.77
2022-08-26T19:18:52.091Z,20.74
2022-08-26T19:21:22.832Z,20.70
2022-08-26T19:23:50.456Z,20.66
2022-08-26T19:26:18.036Z,20.68
2022-08-26T19:28:48.809Z,20.64
2022-08-26T19:31:16.375Z,20.61
2022-08-26T19:33:44.834Z,20.56
2022-08-26T19:36:21.595Z,20.53
2022-08-26T19:38:49.476Z,20.50
2022-08-26T19:41:20.031Z,20.48
2022-08-26T19:43:47.087Z,20.46
2022-08-26T19:46:17.342Z,20.45
2022-08-26T19:48:45.353Z,20.43
2022-08-26T19:51:17.547Z,20.38
2022-08-26T19:53:46.281Z,20.34
2022-08-26T19:56:13.812Z,20.29
2022-08-26T19:58:41.264Z,20.22
2022-08-26T20:01:09.493Z,20.18
2022-08-26T20:06:09.852Z,20.14
2022-08-26T20:08:39.156Z,20.08
2022-08-26T20:11:11.395Z,20.08
2022-08-26T20:13:39.384Z,20.04
2022-08-26T20:16:07.045Z,20.00
2022-08-26T20:18:50.868Z,20.00
2022-08-26T20:21:27.648Z,19.97
2022-08-26T20:24:01.464Z,19.93
2022-08-26T20:26:29.978Z,19.86
2022-08-26T20:28:57.958Z,19.86
2022-08-26T20:31:26.842Z,19.82
2022-08-26T20:33:53.980Z,19.81
2022-08-26T20:36:23.590Z,19.78
2022-08-26T20:38:50.910Z,19.72
2022-08-26T20:41:18.764Z,19.66
2022-08-26T20:43:46.630Z,19.63
2022-08-26T20:46:21.870Z,19.68
2022-08-26T20:48:52.222Z,19.68
2022-08-26T20:51:20.732Z,19.66
2022-08-26T20:53:48.017Z,19.64
2022-08-26T20:56:18.657Z,19.59
2022-08-26T20:58:46.029Z,19.58
2022-08-26T21:01:21.804Z,19.58
2022-08-26T21:03:51.753Z,19.55
2022-08-26T21:06:18.983Z,19.52
2022-08-26T21:08:47.774Z,19.48
2022-08-26T21:11:16.947Z,19.50
2022-08-26T21:14:04.011Z,19.51
2022-08-26T21:16:28.047Z,19.45
2022-08-26T21:18:55.507Z,19.42
2022-08-26T21:21:25.141Z,19.41
2022-08-26T21:26:29.924Z,19.39
2022-08-26T21:28:57.452Z,19.42
2022-08-26T21:31:25.003Z,19.43
2022-08-26T21:33:52.664Z,19.45
2022-08-26T21:36:19.958Z,19.47
2022-08-26T21:38:48.019Z,19.46
2022-08-26T21:41:19.568Z,19.43
2022-08-26T21:43:48.648Z,19.42
2022-08-26T21:46:18.465Z,19.43
2022-08-26T21:48:50.769Z,19.44
2022-08-26T21:51:21.956Z,19.43
2022-08-26T21:53:52.076Z,19.45
2022-08-26T21:56:20.999Z,19.43
2022-08-26T21:58:48.869Z,19.45
2022-08-26T22:01:24.328Z,19.45
2022-08-26T22:03:52.435Z,19.43
2022-08-26T22:06:22.334Z,19.42
2022-08-26T22:08:50.315Z,19.44
2022-08-26T22:11:18.087Z,19.45
2022-08-26T22:13:46.338Z,19.47
2022-08-26T22:16:14.243Z,19.44
2022-08-26T22:18:43.238Z,19.45
2022-08-26T22:21:14.233Z,19.46
2022-08-26T22:23:41.940Z,19.50
2022-08-26T22:26:25.725Z,19.50
2022-08-26T22:28:58.485Z,19.44
2022-08-26T22:31:36.919Z,19.45
2022-08-26T22:34:09.558Z,19.42
2022-08-26T22:36:43.754Z,19.46
2022-08-26T22:39:13.388Z,19.44
2022-08-26T22:41:42.699Z,19.49
2022-08-26T22:44:11.497Z,19.51
2022-08-26T22:46:41.397Z,19.52
2022-08-26T22:49:10.850Z,19.54
2022-08-26T22:51:38.560Z,19.60
2022-08-26T22:54:06.201Z,19.65
2022-08-26T22:56:33.671Z,19.64
2022-08-26T22:59:04.293Z,19.66
2022-08-26T23:01:35.125Z,19.64
2022-08-26T23:04:03.238Z,19.62
2022-08-26T23:06:30.485Z,19.58
2022-08-26T23:08:57.817Z,19.57
2022-08-26T23:11:25.020Z,19.56
2022-08-26T23:13:52.093Z,19.55
2022-08-26T23:16:19.425Z,19.51
2022-08-26T23:18:46.669Z,19.48
2022-08-26T23:21:13.849Z,19.46
2022-08-26T23:23:41.198Z,19.41
2022-08-26T23:26:08.486Z,19.41
2022-08-26T23:28:36.772Z,19.38
2022-08-26T23:31:04.809Z,19.39
2022-08-26T23:33:42.056Z,19.37
2022-08-26T23:36:12.683Z,19.36
2022-08-26T23:38:42.956Z,19.37
2022-08-26T23:41:10.261Z,19.31
2022-08-26T23:43:37.321Z,19.34
2022-08-26T23:46:04.705Z,19.38
2022-08-26T23:48:31.683Z,19.43
2022-08-26T23:51:05.028Z,19.40
2022-08-26T23:53:32.065Z,19.35
2022-08-26T23:55:59.364Z,19.29
2022-08-26T23:58:26.511Z,19.24
